Newport, RI (02840)

8:28 AM EDT on August 23, 2017 (GMT -0400)
Cardines Field | | Change Station

Elev 50 ft 41.49 °N, 71.32 °W | Updated 1 minute ago

Mostly Cloudy
Mostly Cloudy
70.3 °F
Feels Like 70.3 °F
N
3.0
Wind Variable Wind from SW
Gusts 7.0 mph

Today
High -- | Low -- °F
--% Chance of Precip.
Yesterday
High -- | Low -- °F
Precip. -- in
Pressure 29.75 in
Visibility 8.0 miles
Clouds Few 500 ft
Mostly Cloudy 1000 ft
Dew Point 69 °F
Humidity 97%
Rainfall 0.00 in
Snow Depth Not available.
6:02 AM 7:32 PM
Waxing Crescent, 4% visible
METAR KUUU 231153Z AUTO 20004KT 8SM FEW005 BKN010 22/22 A2976 RMK AO2 SLP075 60000 T02170217 10228 20217 53007
Pressure 29.75 in
Visibility 8.0 miles
Clouds Few 500 ft
Mostly Cloudy 1000 ft
Dew Point 69 °F
Humidity 97%
Rainfall 0.00 in
Snow Depth Not available.
6:02 AM 7:32 PM
Waxing Crescent, 4% visible
METAR KUUU 231153Z AUTO 20004KT 8SM FEW005 BKN010 22/22 A2976 RMK AO2 SLP075 60000 T02170217 10228 20217 53007

Get Severe Weather Alerts

Thanks for signing up!

Be on the lookout for a verification email in your inbox.

You'll start receiving the daily forecast at 6 AM.

×

10-Day Weather Forecast

Almanac

Astronomy

Aug. 23, 2017 Rise Set
Actual Time
Civil Twilight
Nautical Twilight
Astronomical Twilight
Moon
Length of Visible Light
Length of Day
Tomorrow will be .
, % of the Moon is Illuminated

Today's Extremes

State Highs State Lows

Community

WunderPhotos

Category 6

Welcome to Category 6. This is the collective home for Weather Underground's featured writeups by Dr. Jeff Masters (right), Bob Henson (left), Chris Burt, and other regular contributors.

Nearby

Air Quality

  Air Quality AQ Index Pollutant
Not available.

Snow Depth

Station Depth Elevation

Earthquake Activity

City Distance Mag. Time & Date
Minimum magnitude displayed is 2.5.

Coastal Water Temperatures

Place Temperature

Stations

Nearby Weather Stations

Station Location Temp. Windchill Dew Point Humidity Wind Precip. Elev Updated Type
                   

Watches & Warnings

There are currently no watches in effect.